sensor_id;sensor_type;location;lat;lon;timestamp;pressure;altitude;pressure_sealevel;temperature;humidity
47913;BME280;33676;51.006;17.180;2022-07-23T00:02:01;100224.52;;;20.23;79.39
47913;BME280;33676;51.006;17.180;2022-07-23T00:04:30;100218.92;;;20.14;79.47
47913;BME280;33676;51.006;17.180;2022-07-23T00:06:59;100220.30;;;20.07;79.71
47913;BME280;33676;51.006;17.180;2022-07-23T00:09:27;100218.23;;;20.01;79.86
47913;BME280;33676;51.006;17.180;2022-07-23T00:11:59;100224.89;;;19.94;80.12
47913;BME280;33676;51.006;17.180;2022-07-23T00:14:27;100225.80;;;19.85;80.08
47913;BME280;33676;51.006;17.180;2022-07-23T00:16:56;100227.42;;;19.78;80.57
47913;BME280;33676;51.006;17.180;2022-07-23T00:19:25;100229.10;;;19.74;80.82
47913;BME280;33676;51.006;17.180;2022-07-23T00:21:53;100229.21;;;19.71;81.15
47913;BME280;33676;51.006;17.180;2022-07-23T00:24:22;100226.83;;;19.67;81.53
47913;BME280;33676;51.006;17.180;2022-07-23T00:26:50;100225.36;;;19.63;81.67
47913;BME280;33676;51.006;17.180;2022-07-23T00:29:19;100225.75;;;19.60;82.07
47913;BME280;33676;51.006;17.180;2022-07-23T00:31:47;100230.11;;;19.56;82.32
47913;BME280;33676;51.006;17.180;2022-07-23T00:34:16;100236.55;;;19.53;82.55
47913;BME280;33676;51.006;17.180;2022-07-23T00:36:45;100235.71;;;19.49;82.67
47913;BME280;33676;51.006;17.180;2022-07-23T00:39:13;100236.00;;;19.45;82.92
47913;BME280;33676;51.006;17.180;2022-07-23T00:41:42;100238.23;;;19.41;82.93
47913;BME280;33676;51.006;17.180;2022-07-23T00:44:26;100236.36;;;19.37;83.05
47913;BME280;33676;51.006;17.180;2022-07-23T00:46:58;100232.71;;;19.35;83.16
47913;BME280;33676;51.006;17.180;2022-07-23T00:49:30;100231.60;;;19.32;83.53
47913;BME280;33676;51.006;17.180;2022-07-23T00:52:03;100233.83;;;19.31;83.54
47913;BME280;33676;51.006;17.180;2022-07-23T00:54:31;100235.91;;;19.31;83.62
47913;BME280;33676;51.006;17.180;2022-07-23T00:57:00;100238.92;;;19.30;83.58
47913;BME280;33676;51.006;17.180;2022-07-23T01:02:08;100229.50;;;19.29;83.70
47913;BME280;33676;51.006;17.180;2022-07-23T01:04:38;100234.39;;;19.28;83.87
47913;BME280;33676;51.006;17.180;2022-07-23T01:07:07;100238.96;;;19.25;83.78
47913;BME280;33676;51.006;17.180;2022-07-23T01:09:38;100245.93;;;19.21;83.91
47913;BME280;33676;51.006;17.180;2022-07-23T01:12:07;100247.98;;;19.16;83.90
47913;BME280;33676;51.006;17.180;2022-07-23T01:14:36;100244.48;;;19.13;83.91
47913;BME280;33676;51.006;17.180;2022-07-23T01:17:05;100241.70;;;19.09;83.95
47913;BME280;33676;51.006;17.180;2022-07-23T01:19:34;100238.55;;;19.06;83.98
47913;BME280;33676;51.006;17.180;2022-07-23T01:22:03;100236.00;;;19.02;84.09
47913;BME280;33676;51.006;17.180;2022-07-23T01:24:32;100233.09;;;19.00;84.05
47913;BME280;33676;51.006;17.180;2022-07-23T01:27:01;100234.86;;;18.98;84.06
47913;BME280;33676;51.006;17.180;2022-07-23T01:29:30;100235.93;;;18.96;84.11
47913;BME280;33676;51.006;17.180;2022-07-23T01:31:58;100235.44;;;18.96;84.38
47913;BME280;33676;51.006;17.180;2022-07-23T01:37:06;100227.27;;;18.95;84.25
47913;BME280;33676;51.006;17.180;2022-07-23T01:39:35;100229.84;;;18.91;84.30
47913;BME280;33676;51.006;17.180;2022-07-23T01:42:04;100227.38;;;18.86;84.37
47913;BME280;33676;51.006;17.180;2022-07-23T01:44:32;100224.09;;;18.80;84.53
47913;BME280;33676;51.006;17.180;2022-07-23T01:47:01;100222.69;;;18.74;84.51
47913;BME280;33676;51.006;17.180;2022-07-23T01:49:30;100220.75;;;18.68;84.56
47913;BME280;33676;51.006;17.180;2022-07-23T01:51:58;100221.90;;;18.61;84.60
47913;BME280;33676;51.006;17.180;2022-07-23T01:54:33;100221.91;;;18.53;84.70
47913;BME280;33676;51.006;17.180;2022-07-23T01:57:02;100222.27;;;18.48;84.88
47913;BME280;33676;51.006;17.180;2022-07-23T01:59:31;100229.05;;;18.49;85.41
47913;BME280;33676;51.006;17.180;2022-07-23T02:04:35;100225.98;;;18.50;85.84
47913;BME280;33676;51.006;17.180;2022-07-23T02:07:05;100226.38;;;18.48;85.78
47913;BME280;33676;51.006;17.180;2022-07-23T02:09:34;100223.14;;;18.45;86.05
47913;BME280;33676;51.006;17.180;2022-07-23T02:12:03;100223.30;;;18.43;86.23
47913;BME280;33676;51.006;17.180;2022-07-23T02:23:40;100201.99;;;18.44;86.33
47913;BME280;33676;51.006;17.180;2022-07-23T02:26:09;100200.40;;;18.43;86.34
47913;BME280;33676;51.006;17.180;2022-07-23T02:28:37;100210.42;;;18.42;86.46
47913;BME280;33676;51.006;17.180;2022-07-23T02:31:06;100212.92;;;18.38;86.45
47913;BME280;33676;51.006;17.180;2022-07-23T02:33:35;100213.31;;;18.33;86.43
47913;BME280;33676;51.006;17.180;2022-07-23T02:36:04;100218.00;;;18.30;86.39
47913;BME280;33676;51.006;17.180;2022-07-23T02:38:33;100217.31;;;18.26;86.51
47913;BME280;33676;51.006;17.180;2022-07-23T02:41:02;100213.97;;;18.23;86.58
47913;BME280;33676;51.006;17.180;2022-07-23T02:43:31;100205.17;;;18.19;86.66
47913;BME280;33676;51.006;17.180;2022-07-23T02:45:59;100205.36;;;18.16;86.68
47913;BME280;33676;51.006;17.180;2022-07-23T02:48:29;100205.48;;;18.12;86.82
47913;BME280;33676;51.006;17.180;2022-07-23T02:50:57;100205.84;;;18.05;86.63
47913;BME280;33676;51.006;17.180;2022-07-23T02:53:26;100203.67;;;18.00;86.90
47913;BME280;33676;51.006;17.180;2022-07-23T02:55:55;100198.33;;;17.95;86.98
47913;BME280;33676;51.006;17.180;2022-07-23T02:58:23;100198.36;;;17.93;87.28
47913;BME280;33676;51.006;17.180;2022-07-23T03:00:54;100194.06;;;17.89;87.47
47913;BME280;33676;51.006;17.180;2022-07-23T03:03:23;100199.94;;;17.87;87.63
47913;BME280;33676;51.006;17.180;2022-07-23T03:05:57;100208.33;;;17.83;88.00
47913;BME280;33676;51.006;17.180;2022-07-23T03:08:25;100208.17;;;17.79;88.01
47913;BME280;33676;51.006;17.180;2022-07-23T03:10:54;100212.70;;;17.78;88.37
47913;BME280;33676;51.006;17.180;2022-07-23T03:13:23;100209.98;;;17.79;88.42
47913;BME280;33676;51.006;17.180;2022-07-23T03:15:51;100208.73;;;17.79;88.58
47913;BME280;33676;51.006;17.180;2022-07-23T03:18:20;100212.97;;;17.79;88.61
47913;BME280;33676;51.006;17.180;2022-07-23T03:20:49;100218.61;;;17.79;88.76
47913;BME280;33676;51.006;17.180;2022-07-23T03:23:17;100220.92;;;17.79;88.90
47913;BME280;33676;51.006;17.180;2022-07-23T03:25:46;100212.80;;;17.79;88.93
47913;BME280;33676;51.006;17.180;2022-07-23T03:28:22;100212.15;;;17.77;88.89
47913;BME280;33676;51.006;17.180;2022-07-23T03:30:50;100215.19;;;17.75;88.85
47913;BME280;33676;51.006;17.180;2022-07-23T03:33:20;100213.96;;;17.75;89.11
47913;BME280;33676;51.006;17.180;2022-07-23T03:35:49;100216.13;;;17.76;89.19
47913;BME280;33676;51.006;17.180;2022-07-23T03:38:18;100215.79;;;17.79;89.48
47913;BME280;33676;51.006;17.180;2022-07-23T03:40:46;100215.65;;;17.82;89.60
47913;BME280;33676;51.006;17.180;2022-07-23T03:43:15;100222.39;;;17.85;89.76
47913;BME280;33676;51.006;17.180;2022-07-23T03:45:44;100218.23;;;17.88;89.81
47913;BME280;33676;51.006;17.180;2022-07-23T03:48:12;100216.98;;;17.90;89.74
47913;BME280;33676;51.006;17.180;2022-07-23T03:50:41;100219.83;;;17.91;89.84
47913;BME280;33676;51.006;17.180;2022-07-23T03:53:09;100220.68;;;17.91;89.82
47913;BME280;33676;51.006;17.180;2022-07-23T03:55:38;100216.77;;;17.93;89.75
47913;BME280;33676;51.006;17.180;2022-07-23T03:58:06;100219.66;;;17.96;89.92
47913;BME280;33676;51.006;17.180;2022-07-23T04:00:35;100228.48;;;17.99;90.09
47913;BME280;33676;51.006;17.180;2022-07-23T04:03:04;100225.84;;;18.05;90.25
47913;BME280;33676;51.006;17.180;2022-07-23T04:05:32;100224.67;;;18.13;90.29
47913;BME280;33676;51.006;17.180;2022-07-23T04:08:01;100223.38;;;18.21;90.52
47913;BME280;33676;51.006;17.180;2022-07-23T04:10:29;100220.79;;;18.30;90.56
47913;BME280;33676;51.006;17.180;2022-07-23T04:12:58;100215.33;;;18.38;90.70
47913;BME280;33676;51.006;17.180;2022-07-23T04:15:27;100208.70;;;18.44;90.80
47913;BME280;33676;51.006;17.180;2022-07-23T04:17:55;100202.55;;;18.53;90.93
47913;BME280;33676;51.006;17.180;2022-07-23T04:20:24;100193.02;;;18.63;91.15
47913;BME280;33676;51.006;17.180;2022-07-23T04:22:52;100189.27;;;18.72;91.32
47913;BME280;33676;51.006;17.180;2022-07-23T04:25:22;100189.05;;;18.82;91.38
47913;BME280;33676;51.006;17.180;2022-07-23T04:27:51;100190.45;;;18.93;91.47
47913;BME280;33676;51.006;17.180;2022-07-23T04:30:20;100190.16;;;19.03;91.42
47913;BME280;33676;51.006;17.180;2022-07-23T04:32:48;100187.16;;;19.14;91.45
47913;BME280;33676;51.006;17.180;2022-07-23T04:35:17;100184.00;;;19.26;91.53
47913;BME280;33676;51.006;17.180;2022-07-23T04:37:45;100187.62;;;19.39;91.47
47913;BME280;33676;51.006;17.180;2022-07-23T04:40:14;100186.24;;;19.50;91.50
47913;BME280;33676;51.006;17.180;2022-07-23T04:42:43;100187.88;;;19.64;91.67
47913;BME280;33676;51.006;17.180;2022-07-23T04:45:11;100181.80;;;19.76;91.86
47913;BME280;33676;51.006;17.180;2022-07-23T04:47:41;100181.20;;;19.89;91.80
47913;BME280;33676;51.006;17.180;2022-07-23T04:50:12;100172.10;;;20.01;91.97
47913;BME280;33676;51.006;17.180;2022-07-23T04:52:42;100168.96;;;20.14;91.95
47913;BME280;33676;51.006;17.180;2022-07-23T04:55:11;100158.85;;;20.27;92.15
47913;BME280;33676;51.006;17.180;2022-07-23T04:57:40;100151.90;;;20.40;92.20
47913;BME280;33676;51.006;17.180;2022-07-23T05:00:09;100146.70;;;20.53;91.99
47913;BME280;33676;51.006;17.180;2022-07-23T05:02:38;100143.54;;;20.66;92.03
47913;BME280;33676;51.006;17.180;2022-07-23T05:05:07;100137.86;;;20.81;92.11
47913;BME280;33676;51.006;17.180;2022-07-23T05:07:36;100137.64;;;20.95;92.08
47913;BME280;33676;51.006;17.180;2022-07-23T05:10:05;100134.75;;;21.10;91.82
47913;BME280;33676;51.006;17.180;2022-07-23T05:12:33;100134.17;;;21.25;91.72
47913;BME280;33676;51.006;17.180;2022-07-23T05:15:02;100130.54;;;21.38;91.42
47913;BME280;33676;51.006;17.180;2022-07-23T05:17:31;100128.35;;;21.53;91.37
47913;BME280;33676;51.006;17.180;2022-07-23T05:20:00;100123.65;;;21.66;91.29
47913;BME280;33676;51.006;17.180;2022-07-23T05:22:29;100122.54;;;21.77;90.99
47913;BME280;33676;51.006;17.180;2022-07-23T05:24:57;100113.88;;;21.89;90.71
47913;BME280;33676;51.006;17.180;2022-07-23T05:27:26;100108.29;;;22.01;90.58
47913;BME280;33676;51.006;17.180;2022-07-23T05:29:54;100102.81;;;22.11;90.33
47913;BME280;33676;51.006;17.180;2022-07-23T05:32:25;100095.02;;;22.22;90.31
47913;BME280;33676;51.006;17.180;2022-07-23T05:34:53;100095.55;;;22.34;90.12
47913;BME280;33676;51.006;17.180;2022-07-23T05:37:22;100089.04;;;22.46;89.85
47913;BME280;33676;51.006;17.180;2022-07-23T05:39:50;100080.60;;;22.57;89.36
47913;BME280;33676;51.006;17.180;2022-07-23T05:42:19;100072.08;;;22.68;89.31
47913;BME280;33676;51.006;17.180;2022-07-23T05:44:48;100073.14;;;22.77;88.91
47913;BME280;33676;51.006;17.180;2022-07-23T05:47:16;100071.85;;;22.86;88.41
47913;BME280;33676;51.006;17.180;2022-07-23T05:49:46;100071.59;;;22.94;87.99
47913;BME280;33676;51.006;17.180;2022-07-23T05:52:14;100070.52;;;23.00;87.57
47913;BME280;33676;51.006;17.180;2022-07-23T05:54:43;100068.48;;;23.09;87.32
47913;BME280;33676;51.006;17.180;2022-07-23T05:57:11;100067.90;;;23.19;87.12
47913;BME280;33676;51.006;17.180;2022-07-23T05:59:40;100074.20;;;23.27;86.85
47913;BME280;33676;51.006;17.180;2022-07-23T06:02:09;100076.06;;;23.38;86.51
47913;BME280;33676;51.006;17.180;2022-07-23T06:04:37;100075.52;;;23.49;86.31
47913;BME280;33676;51.006;17.180;2022-07-23T06:07:06;100077.01;;;23.61;86.08
47913;BME280;33676;51.006;17.180;2022-07-23T06:09:34;100076.21;;;23.71;85.95
47913;BME280;33676;51.006;17.180;2022-07-23T06:12:03;100081.28;;;23.84;85.66
47913;BME280;33676;51.006;17.180;2022-07-23T06:14:32;100086.74;;;23.96;85.28
47913;BME280;33676;51.006;17.180;2022-07-23T06:17:01;100093.02;;;24.07;85.07
47913;BME280;33676;51.006;17.180;2022-07-23T06:19:29;100097.80;;;24.18;84.65
47913;BME280;33676;51.006;17.180;2022-07-23T06:21:58;100105.71;;;24.27;84.03
47913;BME280;33676;51.006;17.180;2022-07-23T06:24:26;100109.89;;;24.35;83.61
47913;BME280;33676;51.006;17.180;2022-07-23T06:26:55;100109.71;;;24.43;83.11
47913;BME280;33676;51.006;17.180;2022-07-23T06:29:23;100111.52;;;24.51;82.82
47913;BME280;33676;51.006;17.180;2022-07-23T06:31:52;100113.65;;;24.61;82.52
47913;BME280;33676;51.006;17.180;2022-07-23T06:34:21;100116.33;;;24.69;81.96
47913;BME280;33676;51.006;17.180;2022-07-23T06:36:49;100111.05;;;24.77;81.66
47913;BME280;33676;51.006;17.180;2022-07-23T06:39:18;100104.73;;;24.86;81.69
47913;BME280;33676;51.006;17.180;2022-07-23T06:41:47;100101.39;;;24.97;81.51
47913;BME280;33676;51.006;17.180;2022-07-23T06:44:19;100098.83;;;25.10;81.32
47913;BME280;33676;51.006;17.180;2022-07-23T06:46:48;100096.38;;;25.23;81.18
47913;BME280;33676;51.006;17.180;2022-07-23T06:49:16;100090.48;;;25.37;80.99
47913;BME280;33676;51.006;17.180;2022-07-23T06:51:45;100089.06;;;25.49;80.63
47913;BME280;33676;51.006;17.180;2022-07-23T06:54:14;100085.95;;;25.63;80.53
47913;BME280;33676;51.006;17.180;2022-07-23T06:56:43;100083.15;;;25.81;80.57
47913;BME280;33676;51.006;17.180;2022-07-23T06:59:12;100076.19;;;25.99;80.50
47913;BME280;33676;51.006;17.180;2022-07-23T07:01:41;100069.98;;;26.17;80.45
47913;BME280;33676;51.006;17.180;2022-07-23T07:04:09;100067.73;;;26.33;79.82
47913;BME280;33676;51.006;17.180;2022-07-23T07:06:38;100066.76;;;26.50;79.58
47913;BME280;33676;51.006;17.180;2022-07-23T07:09:06;100061.55;;;26.65;79.30
47913;BME280;33676;51.006;17.180;2022-07-23T07:11:35;100063.25;;;26.82;79.01
47913;BME280;33676;51.006;17.180;2022-07-23T07:14:04;100066.29;;;26.98;78.63
47913;BME280;33676;51.006;17.180;2022-07-23T07:16:33;100063.26;;;27.13;78.27
47913;BME280;33676;51.006;17.180;2022-07-23T07:19:02;100069.44;;;27.30;78.14
47913;BME280;33676;51.006;17.180;2022-07-23T07:21:33;100068.24;;;27.48;78.08
47913;BME280;33676;51.006;17.180;2022-07-23T07:24:02;100068.48;;;27.66;77.63
47913;BME280;33676;51.006;17.180;2022-07-23T07:26:31;100066.74;;;27.82;77.00
47913;BME280;33676;51.006;17.180;2022-07-23T07:28:59;100064.95;;;27.97;76.73
47913;BME280;33676;51.006;17.180;2022-07-23T07:31:29;100056.48;;;28.15;76.34
47913;BME280;33676;51.006;17.180;2022-07-23T07:33:58;100055.52;;;28.30;76.08
47913;BME280;33676;51.006;17.180;2022-07-23T07:36:27;100058.65;;;28.47;75.49
47913;BME280;33676;51.006;17.180;2022-07-23T07:38:56;100057.09;;;28.63;75.16
47913;BME280;33676;51.006;17.180;2022-07-23T07:41:24;100056.46;;;28.82;75.06
47913;BME280;33676;51.006;17.180;2022-07-23T07:43:54;100055.58;;;28.92;72.92
47913;BME280;33676;51.006;17.180;2022-07-23T07:46:23;100055.47;;;28.92;72.56
47913;BME280;33676;51.006;17.180;2022-07-23T07:48:52;100055.55;;;28.96;72.23
47913;BME280;33676;51.006;17.180;2022-07-23T07:51:26;100057.98;;;28.99;71.97
47913;BME280;33676;51.006;17.180;2022-07-23T07:53:56;100057.58;;;29.05;71.85
47913;BME280;33676;51.006;17.180;2022-07-23T07:56:25;100049.71;;;29.10;71.58
47913;BME280;33676;51.006;17.180;2022-07-23T07:58:53;100047.89;;;29.16;71.09
47913;BME280;33676;51.006;17.180;2022-07-23T08:01:22;100045.38;;;29.18;70.84
47913;BME280;33676;51.006;17.180;2022-07-23T08:03:52;100043.54;;;29.28;71.00
47913;BME280;33676;51.006;17.180;2022-07-23T08:06:21;100044.66;;;29.42;71.06
47913;BME280;33676;51.006;17.180;2022-07-23T08:08:50;100044.23;;;29.55;70.87
47913;BME280;33676;51.006;17.180;2022-07-23T08:11:18;100045.08;;;29.69;70.54
47913;BME280;33676;51.006;17.180;2022-07-23T08:13:48;100049.36;;;29.81;70.39
47913;BME280;33676;51.006;17.180;2022-07-23T08:16:16;100050.00;;;29.97;70.27
47913;BME280;33676;51.006;17.180;2022-07-23T08:18:45;100052.63;;;30.10;69.64
47913;BME280;33676;51.006;17.180;2022-07-23T08:21:14;100047.39;;;30.17;69.26
47913;BME280;33676;51.006;17.180;2022-07-23T08:23:42;100043.52;;;30.31;69.45
47913;BME280;33676;51.006;17.180;2022-07-23T08:26:11;100042.80;;;30.40;67.93
47913;BME280;33676;51.006;17.180;2022-07-23T08:28:40;100037.13;;;30.45;68.10
47913;BME280;33676;51.006;17.180;2022-07-23T08:31:09;100037.98;;;30.66;68.37
47913;BME280;33676;51.006;17.180;2022-07-23T08:33:39;100035.39;;;30.93;68.17
47913;BME280;33676;51.006;17.180;2022-07-23T08:36:08;100034.24;;;31.16;67.88
47913;BME280;33676;51.006;17.180;2022-07-23T08:38:37;100034.20;;;31.37;67.16
47913;BME280;33676;51.006;17.180;2022-07-23T08:41:07;100034.21;;;31.57;66.81
47913;BME280;33676;51.006;17.180;2022-07-23T08:43:36;100028.23;;;31.71;65.84
47913;BME280;33676;51.006;17.180;2022-07-23T08:46:05;100022.70;;;31.77;65.07
47913;BME280;33676;51.006;17.180;2022-07-23T08:48:35;100020.33;;;31.80;64.47
47913;BME280;33676;51.006;17.180;2022-07-23T08:51:07;100016.81;;;31.80;64.42
47913;BME280;33676;51.006;17.180;2022-07-23T08:53:37;100014.50;;;31.85;63.98
47913;BME280;33676;51.006;17.180;2022-07-23T08:56:08;100013.52;;;31.87;63.60
47913;BME280;33676;51.006;17.180;2022-07-23T08:58:37;100011.17;;;31.93;63.19
47913;BME280;33676;51.006;17.180;2022-07-23T09:01:06;100009.81;;;31.93;63.02
47913;BME280;33676;51.006;17.180;2022-07-23T09:03:37;100012.63;;;31.95;62.59
47913;BME280;33676;51.006;17.180;2022-07-23T09:06:07;100013.31;;;32.01;61.92
47913;BME280;33676;51.006;17.180;2022-07-23T09:08:43;100019.73;;;32.07;61.32
47913;BME280;33676;51.006;17.180;2022-07-23T09:11:17;100021.15;;;32.09;61.29
47913;BME280;33676;51.006;17.180;2022-07-23T09:13:54;100021.16;;;32.14;61.22
47913;BME280;33676;51.006;17.180;2022-07-23T09:16:31;100019.98;;;32.24;61.01
47913;BME280;33676;51.006;17.180;2022-07-23T09:19:03;100015.52;;;32.36;60.98
47913;BME280;33676;51.006;17.180;2022-07-23T09:21:34;100013.15;;;32.56;60.74
47913;BME280;33676;51.006;17.180;2022-07-23T09:24:05;100007.63;;;32.77;60.12
47913;BME280;33676;51.006;17.180;2022-07-23T09:29:15;100006.21;;;32.94;59.51
47913;BME280;33676;51.006;17.180;2022-07-23T09:31:57;100011.98;;;32.96;58.62
47913;BME280;33676;51.006;17.180;2022-07-23T09:34:34;100010.02;;;32.88;58.52
47913;BME280;33676;51.006;17.180;2022-07-23T09:37:15;100009.25;;;32.73;57.92
47913;BME280;33676;51.006;17.180;2022-07-23T09:39:47;100002.36;;;32.63;58.03
47913;BME280;33676;51.006;17.180;2022-07-23T09:44:50;99998.93;;;32.54;57.96
47913;BME280;33676;51.006;17.180;2022-07-23T09:47:21;99997.63;;;32.61;57.97
47913;BME280;33676;51.006;17.180;2022-07-23T09:50:06;99994.86;;;32.76;58.14
47913;BME280;33676;51.006;17.180;2022-07-23T09:52:47;99990.45;;;32.93;58.36
47913;BME280;33676;51.006;17.180;2022-07-23T09:55:18;99994.19;;;33.09;57.97
47913;BME280;33676;51.006;17.180;2022-07-23T09:57:47;99989.05;;;33.24;57.62
47913;BME280;33676;51.006;17.180;2022-07-23T10:00:19;99989.40;;;33.39;57.51
47913;BME280;33676;51.006;17.180;2022-07-23T10:02:49;99987.36;;;33.44;57.30
47913;BME280;33676;51.006;17.180;2022-07-23T10:05:19;99986.88;;;33.44;57.15
47913;BME280;33676;51.006;17.180;2022-07-23T10:07:50;99986.34;;;33.39;56.41
47913;BME280;33676;51.006;17.180;2022-07-23T10:10:22;99991.48;;;33.31;56.23
47913;BME280;33676;51.006;17.180;2022-07-23T10:12:54;99987.98;;;33.20;56.26
47913;BME280;33676;51.006;17.180;2022-07-23T10:15:40;99989.40;;;33.12;56.20
47913;BME280;33676;51.006;17.180;2022-07-23T10:18:11;99990.45;;;33.03;55.79
47913;BME280;33676;51.006;17.180;2022-07-23T10:20:41;99991.55;;;32.89;55.66
47913;BME280;33676;51.006;17.180;2022-07-23T10:26:22;100001.92;;;32.65;56.15
47913;BME280;33676;51.006;17.180;2022-07-23T10:38:51;100027.77;;;31.22;58.82
47913;BME280;33676;51.006;17.180;2022-07-23T10:41:39;100023.08;;;30.89;59.34
47913;BME280;33676;51.006;17.180;2022-07-23T10:44:20;100031.19;;;30.62;59.92
47913;BME280;33676;51.006;17.180;2022-07-23T10:47:01;100044.61;;;30.31;60.42
47913;BME280;33676;51.006;17.180;2022-07-23T10:49:40;100068.56;;;29.93;60.85
47913;BME280;33676;51.006;17.180;2022-07-23T10:52:24;100081.30;;;29.60;61.74
47913;BME280;33676;51.006;17.180;2022-07-23T10:57:27;100088.48;;;28.89;64.41
47913;BME280;33676;51.006;17.180;2022-07-23T11:02:38;100109.27;;;28.06;65.87
47913;BME280;33676;51.006;17.180;2022-07-23T11:05:10;100110.85;;;27.67;66.61
47913;BME280;33676;51.006;17.180;2022-07-23T11:10:49;100134.48;;;26.85;68.85
47913;BME280;33676;51.006;17.180;2022-07-23T11:16:20;100143.06;;;26.07;77.17
47913;BME280;33676;51.006;17.180;2022-07-23T11:18:56;100139.88;;;25.54;74.85
47913;BME280;33676;51.006;17.180;2022-07-23T11:24:12;100136.56;;;24.81;77.07
47913;BME280;33676;51.006;17.180;2022-07-23T11:27:11;100123.73;;;24.42;78.19
47913;BME280;33676;51.006;17.180;2022-07-23T11:29:41;100115.21;;;24.02;79.40
47913;BME280;33676;51.006;17.180;2022-07-23T11:32:33;100101.53;;;23.74;79.99
47913;BME280;33676;51.006;17.180;2022-07-23T11:37:50;100099.55;;;23.35;80.73
47913;BME280;33676;51.006;17.180;2022-07-23T11:40:22;100097.54;;;23.24;81.48
47913;BME280;33676;51.006;17.180;2022-07-23T11:43:05;100112.14;;;23.19;82.10
47913;BME280;33676;51.006;17.180;2022-07-23T11:45:43;100111.77;;;23.11;82.73
47913;BME280;33676;51.006;17.180;2022-07-23T11:48:25;100075.17;;;23.03;83.58
47913;BME280;33676;51.006;17.180;2022-07-23T11:50:56;100028.59;;;22.94;84.07
47913;BME280;33676;51.006;17.180;2022-07-23T11:53:33;100020.74;;;22.94;84.31
47913;BME280;33676;51.006;17.180;2022-07-23T11:56:11;100012.52;;;22.98;84.96
47913;BME280;33676;51.006;17.180;2022-07-23T11:58:54;100014.77;;;23.03;85.79
47913;BME280;33676;51.006;17.180;2022-07-23T12:01:23;100025.15;;;23.05;85.97
47913;BME280;33676;51.006;17.180;2022-07-23T12:03:53;100043.33;;;23.06;86.27
47913;BME280;33676;51.006;17.180;2022-07-23T12:06:22;100062.30;;;23.04;86.84
47913;BME280;33676;51.006;17.180;2022-07-23T12:08:51;100036.13;;;23.00;86.68
47913;BME280;33676;51.006;17.180;2022-07-23T12:11:19;100025.31;;;23.01;87.21
47913;BME280;33676;51.006;17.180;2022-07-23T12:13:57;100035.02;;;23.07;88.18
47913;BME280;33676;51.006;17.180;2022-07-23T12:16:26;100041.02;;;23.11;88.84
47913;BME280;33676;51.006;17.180;2022-07-23T12:18:56;100040.08;;;23.16;89.04
47913;BME280;33676;51.006;17.180;2022-07-23T12:21:24;100053.50;;;23.25;89.36
47913;BME280;33676;51.006;17.180;2022-07-23T12:24:06;100064.52;;;23.37;90.02
47913;BME280;33676;51.006;17.180;2022-07-23T12:26:35;100078.36;;;23.50;89.69
47913;BME280;33676;51.006;17.180;2022-07-23T12:29:05;100086.02;;;23.62;90.60
47913;BME280;33676;51.006;17.180;2022-07-23T12:31:33;100085.02;;;23.72;90.84
47913;BME280;33676;51.006;17.180;2022-07-23T12:34:14;100083.09;;;23.85;90.77
47913;BME280;33676;51.006;17.180;2022-07-23T12:36:43;100073.75;;;24.01;90.91
47913;BME280;33676;51.006;17.180;2022-07-23T12:39:30;100069.56;;;24.19;90.76
47913;BME280;33676;51.006;17.180;2022-07-23T12:41:59;100066.69;;;24.45;90.83
47913;BME280;33676;51.006;17.180;2022-07-23T12:44:28;100061.04;;;24.84;91.45
47913;BME280;33676;51.006;17.180;2022-07-23T12:46:56;100061.34;;;25.24;91.42
47913;BME280;33676;51.006;17.180;2022-07-23T12:49:27;100064.40;;;25.77;91.50
47913;BME280;33676;51.006;17.180;2022-07-23T12:51:57;100063.42;;;26.50;92.36
47913;BME280;33676;51.006;17.180;2022-07-23T12:54:27;100061.61;;;27.30;92.74
47913;BME280;33676;51.006;17.180;2022-07-23T12:56:56;100058.70;;;28.16;92.64
47913;BME280;33676;51.006;17.180;2022-07-23T12:59:30;100049.15;;;29.11;91.55
47913;BME280;33676;51.006;17.180;2022-07-23T13:02:00;100036.17;;;29.99;88.74
47913;BME280;33676;51.006;17.180;2022-07-23T13:04:30;100023.05;;;30.87;86.51
47913;BME280;33676;51.006;17.180;2022-07-23T13:07:02;100026.44;;;31.54;83.16
47913;BME280;33676;51.006;17.180;2022-07-23T13:09:34;100033.45;;;32.21;82.57
47913;BME280;33676;51.006;17.180;2022-07-23T13:12:09;100036.14;;;32.83;80.37
47913;BME280;33676;51.006;17.180;2022-07-23T13:14:39;100039.65;;;33.23;79.04
47913;BME280;33676;51.006;17.180;2022-07-23T13:17:09;100052.04;;;33.88;78.64
47913;BME280;33676;51.006;17.180;2022-07-23T13:19:38;100055.25;;;34.58;77.44
47913;BME280;33676;51.006;17.180;2022-07-23T13:22:06;100054.08;;;34.98;75.50
47913;BME280;33676;51.006;17.180;2022-07-23T13:24:37;100057.54;;;35.51;73.55
47913;BME280;33676;51.006;17.180;2022-07-23T13:27:07;100057.71;;;35.40;68.14
47913;BME280;33676;51.006;17.180;2022-07-23T13:29:40;100055.05;;;34.92;67.58
47913;BME280;33676;51.006;17.180;2022-07-23T13:32:12;100049.20;;;34.75;67.64
47913;BME280;33676;51.006;17.180;2022-07-23T13:34:41;100052.80;;;34.58;67.84
47913;BME280;33676;51.006;17.180;2022-07-23T13:37:09;100056.90;;;34.56;67.23
47913;BME280;33676;51.006;17.180;2022-07-23T13:39:38;100051.27;;;34.66;67.55
47913;BME280;33676;51.006;17.180;2022-07-23T13:42:06;100057.52;;;34.96;68.62
47913;BME280;33676;51.006;17.180;2022-07-23T13:44:35;100054.32;;;35.71;69.46
47913;BME280;33676;51.006;17.180;2022-07-23T13:47:04;100054.84;;;36.29;68.52
47913;BME280;33676;51.006;17.180;2022-07-23T13:49:33;100053.96;;;36.66;67.11